Terminal Aerodrome Forecast
Issued by NWS

Home | Current Version | Previous Version | Text Only | Print | Product List | Glossary On
Versions: 1 2 3 4 5 6 7 8 9 10 11 12 13 14 15 16 17 18 19 20 21 22 23 24 25 26 27
000
FTUS41 KBUF 262334
TAFIAG
TAF
KIAG 262334Z 2700/2724 22012G18KT P6SM SCT200
     FM270400 23020G33KT P6SM BKN050
     FM270800 23017G29KT P6SM SCT100
     FM271100 23014G20KT P6SM FEW200
     FM271300 24013KT P6SM FEW200
     FM272300 19008KT P6SM BKN060=

USA.gov is the U.S. government's official web portal to all federal, state and local government web resources and services.